Time;durP1;ratioP1;P1;durP2;ratioP2;P2;SDS_P1;SDS_P2;PMS_P1;PMS_P2;Temp;Humidity;BMP_temperature;BMP_pressure;BME280_temperature;BME280_humidity;BME280_pressure;Samples;Min_cycle;Max_cycle;Signal;HPM_P1;HPM_P2
2023/02/13 00:00:52;;;;;;;20.65;11.20;;;;;;;8.96;66.31;102289.38;5030896;27;100979;-80
2023/02/13 00:03:17;;;;;;;19.35;11.02;;;;;;;8.94;66.13;102290.25;5036768;27;97309;-82
2023/02/13 00:05:43;;;;;;;18.10;10.20;;;;;;;8.83;66.32;102272.72;5037576;27;97078;-82
2023/02/13 00:08:08;;;;;;;18.33;9.93;;;;;;;8.92;65.99;102286.72;5030896;27;101469;-85
2023/02/13 00:10:34;;;;;;;17.23;9.93;;;;;;;8.89;65.99;102282.34;5051428;27;101232;-82
2023/02/13 00:12:59;;;;;;;21.83;10.30;;;;;;;8.95;65.53;102285.00;5044656;27;96861;-81
2023/02/13 00:15:25;;;;;;;16.77;9.45;;;;;;;8.94;65.92;102282.38;5050778;27;97087;-82
2023/02/13 00:17:50;;;;;;;21.67;10.32;;;;;;;8.92;65.81;102273.63;5063694;27;97860;-82
2023/02/13 00:20:16;;;;;;;16.58;9.13;;;;;;;8.96;65.74;102285.88;5025892;27;101189;-85
2023/02/13 00:22:42;;;;;;;17.05;10.00;;;;;;;8.95;65.91;102287.59;5047135;27;97836;-81
2023/02/13 00:25:08;;;;;;;16.27;9.00;;;;;;;8.91;65.78;102285.88;5050244;27;97258;-85
2023/02/13 00:27:33;;;;;;;17.42;9.60;;;;;;;8.92;65.65;102287.59;5035723;27;101552;-81
2023/02/13 00:29:59;;;;;;;15.63;8.25;;;;;;;8.83;65.51;102270.09;5052433;27;101338;-82
2023/02/13 00:32:24;;;;;;;16.25;8.75;;;;;;;8.80;65.82;102267.47;5057335;27;96967;-81
2023/02/13 00:34:50;;;;;;;15.30;9.02;;;;;;;8.92;65.64;102278.88;5050065;27;97389;-81
2023/02/13 00:37:16;;;;;;;15.82;8.65;;;;;;;8.87;65.14;102267.50;5033481;27;101170;-81
2023/02/13 00:39:41;;;;;;;15.90;8.73;;;;;;;8.89;65.12;102278.88;5045551;27;101322;-82
2023/02/13 00:42:07;;;;;;;15.27;8.02;;;;;;;8.86;65.32;102276.22;5053693;27;97221;-81
2023/02/13 00:44:32;;;;;;;12.55;8.55;;;;;;;8.93;64.87;102283.22;5030713;27;97069;-83
2023/02/13 00:47:00;;;;;;;12.45;7.93;;;;;;;8.92;64.83;102281.50;5034457;27;101551;-82
2023/02/13 00:49:25;;;;;;;14.77;8.50;;;;;;;8.83;64.83;102269.22;5059516;27;101470;-82
2023/02/13 00:51:51;;;;;;;14.10;8.10;;;;;;;8.80;65.07;102274.47;5053031;27;97150;-81
2023/02/13 00:54:16;;;;;;;15.38;8.50;;;;;;;8.79;65.13;102262.25;5034340;27;96941;-82
2023/02/13 00:56:42;;;;;;;14.13;8.05;;;;;;;8.89;64.57;102276.25;5047996;27;101958;-82
2023/02/13 00:59:08;;;;;;;20.65;8.80;;;;;;;8.88;64.42;102283.22;5033461;27;101516;-82
2023/02/13 01:01:34;;;;;;;14.07;8.20;;;;;;;8.89;64.71;102282.34;5050487;27;96850;-82
2023/02/13 01:03:59;;;;;;;13.02;7.47;;;;;;;8.92;64.58;102290.22;5034218;27;96948;-81
2023/02/13 01:06:26;;;;;;;15.45;7.90;;;;;;;8.71;64.27;102246.50;5048775;27;101814;-83
2023/02/13 01:08:51;;;;;;;13.75;7.93;;;;;;;8.88;64.58;102274.50;5025319;27;101556;-81
2023/02/13 01:11:18;;;;;;;15.43;8.57;;;;;;;8.88;64.42;102274.50;5049588;27;97175;-82
2023/02/13 01:13:44;;;;;;;18.33;8.40;;;;;;;8.93;64.33;102280.63;5038237;27;97559;-82
2023/02/13 01:16:10;;;;;;;13.20;7.45;;;;;;;8.92;64.29;102277.13;5026792;27;100988;-85
2023/02/13 01:18:36;;;;;;;14.70;7.32;;;;;;;8.93;64.07;102268.41;5054454;27;101476;-82
2023/02/13 01:21:05;;;;;;;13.18;7.30;;;;;;;8.91;64.49;102266.66;5049196;27;97060;-82
2023/02/13 01:23:36;;;;;;;13.93;7.72;;;;;;;8.89;64.04;102265.78;5036548;27;97285;-82
2023/02/13 01:26:07;;;;;;;12.48;7.35;;;;;;;8.89;64.28;102268.38;5053948;27;101723;-82
2023/02/13 01:28:33;;;;;;;13.55;7.72;;;;;;;8.87;64.21;102267.50;5035265;27;101408;-84
2023/02/13 01:30:58;;;;;;;14.27;8.05;;;;;;;8.86;64.19;102264.00;5040074;27;96723;-81
2023/02/13 01:33:26;;;;;;;12.93;8.00;;;;;;;8.72;63.92;102232.53;5066682;27;96936;-81
2023/02/13 01:35:51;;;;;;;12.77;7.07;;;;;;;8.88;64.24;102266.66;5024281;27;101195;-81
2023/02/13 01:38:17;;;;;;;12.57;7.70;;;;;;;8.88;64.01;102257.03;5042892;27;101917;-82
2023/02/13 01:40:50;;;;;;;15.82;8.93;;;;;;;8.90;64.14;102263.16;5050664;27;97453;-81
2023/02/13 01:43:16;;;;;;;11.52;7.13;;;;;;;8.81;64.23;102244.78;5036255;27;97142;-82
2023/02/13 01:45:43;;;;;;;16.60;9.20;;;;;;;8.81;64.47;102258.78;5043526;27;97715;-82
2023/02/13 01:48:16;;;;;;;15.98;7.97;;;;;;;8.87;64.35;102276.22;5035057;27;101134;-82
2023/02/13 01:50:52;;;;;;;15.48;8.10;;;;;;;8.88;63.71;102271.88;5049986;27;97194;-82
2023/02/13 01:53:26;;;;;;;18.73;9.65;;;;;;;8.86;64.15;102265.75;5036353;27;97177;-82
2023/02/13 01:56:16;;;;;;;17.63;8.38;;;;;;;8.87;63.99;102264.88;5034583;27;101736;-82
2023/02/13 01:58:43;;;;;;;13.00;7.60;;;;;;;8.66;64.19;102223.78;5030069;27;101592;-81
2023/02/13 02:01:09;;;;;;;15.45;8.73;;;;;;;8.84;64.08;102250.03;5035075;27;97161;-82
2023/02/13 02:04:04;;;;;;;18.27;8.85;;;;;;;8.85;64.08;102262.28;5032962;27;96781;-81
2023/02/13 02:06:40;;;;;;;15.45;7.38;;;;;;;8.84;63.72;102243.06;5070171;27;101416;-84
2023/02/13 02:09:15;;;;;;;15.27;7.72;;;;;;;8.82;64.02;102242.19;5064487;27;101143;-82
2023/02/13 02:11:45;;;;;;;15.82;7.68;;;;;;;8.76;63.59;102228.19;5027981;27;96933;-82
2023/02/13 02:14:10;;;;;;;15.90;7.93;;;;;;;8.75;63.69;102227.28;5055904;27;97019;-81
2023/02/13 02:16:36;;;;;;;16.60;8.27;;;;;;;8.75;63.90;102229.91;5046230;27;98058;-82
2023/02/13 02:19:41;;;;;;;14.15;7.43;;;;;;;8.74;63.66;102229.94;5055476;27;99911;-81
2023/02/13 02:22:25;;;;;;;16.27;9.40;;;;;;;8.84;63.72;102247.41;5071497;27;96751;-82
2023/02/13 02:25:09;;;;;;;16.38;8.93;;;;;;;8.83;63.49;102250.91;5028391;27;97074;-81
2023/02/13 02:28:00;;;;;;;15.07;7.55;;;;;;;8.82;63.50;102247.41;5050819;27;97659;-81
2023/02/13 02:30:30;;;;;;;;;;;;;;;8.77;63.88;102241.28;5015213;28;100402;-81
2023/02/13 02:33:26;;;;;;;16.00;8.15;;;;;;;8.76;64.05;102222.97;5034054;27;97167;-81
2023/02/13 02:35:58;;;;;;;15.55;8.43;;;;;;;8.76;63.90;102230.81;5000248;27;96791;-81
2023/02/13 02:38:38;;;;;;;;;;;;;;;8.75;63.99;102235.16;5017036;27;99772;-82
2023/02/13 02:41:41;;;;;;;14.80;7.15;;;;;;;8.76;63.28;102238.66;5018145;27;101183;-82
2023/02/13 02:44:36;;;;;;;13.90;7.72;;;;;;;8.76;63.76;102238.66;4994410;28;96681;-81
2023/02/13 02:50:10;;;;;;;14.27;7.38;;;;;;;8.75;63.91;102236.91;5006682;27;101335;-82
2023/02/13 02:52:48;;;;;;;11.80;7.03;;;;;;;8.64;63.47;102215.94;5033865;27;101859;-82
2023/02/13 02:55:28;;;;;;;12.40;7.22;;;;;;;8.77;63.85;102246.50;5018853;27;96761;-82
2023/02/13 03:06:31;;;;;;;15.07;6.75;;;;;;;8.75;64.00;102250.00;5037106;27;96822;-81
2023/02/13 03:14:34;;;;;;;10.27;5.60;;;;;;;8.77;63.84;102240.41;5011021;27;101197;-81
2023/02/13 03:22:52;;;;;;;12.88;6.40;;;;;;;8.76;63.81;102230.81;5050895;27;97901;-83
2023/02/13 03:25:34;;;;;;;6.82;4.82;;;;;;;8.63;63.79;102206.31;4999767;27;101452;-85
2023/02/13 03:31:36;;;;;;;8.90;5.05;;;;;;;8.63;64.28;102213.28;5034404;27;97258;-82
2023/02/13 03:34:05;;;;;;;10.63;5.97;;;;;;;8.75;64.36;102231.66;4988927;27;101018;-82
2023/02/13 03:39:22;;;;;;;8.98;5.43;;;;;;;8.74;63.98;102241.28;5031925;27;96756;-82
2023/02/13 03:42:16;;;;;;;10.70;5.30;;;;;;;8.61;63.77;102226.41;5012798;28;96895;-82
2023/02/13 03:47:43;;;;;;;8.90;5.07;;;;;;;8.72;63.95;102242.13;5018392;27;101163;-81
2023/02/13 03:50:10;;;;;;;10.95;6.53;;;;;;;8.72;64.45;102235.13;4987472;28;96791;-83
2023/02/13 03:52:52;;;;;;;9.20;5.68;;;;;;;8.74;64.18;102246.50;5010903;27;97173;-81
2023/02/13 04:00:54;;;;;;;14.45;9.05;;;;;;;8.55;64.95;102224.63;5020124;27;97204;-81
2023/02/13 04:03:41;;;;;;;12.50;8.18;;;;;;;8.68;64.67;102248.22;5006549;27;97367;-81
2023/02/13 04:06:15;;;;;;;11.00;7.72;;;;;;;8.70;64.89;102244.75;5013094;28;97951;-83
2023/02/13 04:08:41;;;;;;;11.25;6.20;;;;;;;8.72;64.53;102244.75;4995423;28;101312;-81
2023/02/13 04:11:34;;;;;;;13.80;6.45;;;;;;;8.74;64.98;102248.25;5002859;28;97109;-81
2023/02/13 04:14:06;;;;;;;8.48;5.45;;;;;;;8.56;65.32;102213.28;5013912;27;96874;-82
2023/02/13 04:16:37;;;;;;;9.75;5.93;;;;;;;8.62;65.00;102225.50;5003651;28;101583;-83
2023/02/13 04:19:04;;;;;;;13.00;6.20;;;;;;;8.63;65.63;102232.50;4999172;27;101472;-82
2023/02/13 04:21:34;;;;;;;11.88;7.30;;;;;;;8.71;65.43;102246.50;4994912;28;97155;-82
2023/02/13 04:24:00;;;;;;;9.90;5.88;;;;;;;8.70;65.89;102247.38;5015908;27;96873;-82
2023/02/13 04:26:32;;;;;;;9.52;5.72;;;;;;;8.70;66.50;102231.66;5022948;27;101814;-83
2023/02/13 04:28:57;;;;;;;9.55;5.95;;;;;;;8.63;66.30;102224.63;5048251;27;97836;-81
2023/02/13 04:31:23;;;;;;;11.07;6.63;;;;;;;8.55;66.59;102216.78;5045443;27;97087;-81
2023/02/13 04:33:48;;;;;;;12.02;5.95;;;;;;;8.66;66.45;102240.34;5049072;27;96817;-81
2023/02/13 04:36:14;;;;;;;8.57;5.70;;;;;;;8.64;66.82;102223.78;5036521;27;100486;-81
2023/02/13 04:38:40;;;;;;;11.02;7.00;;;;;;;8.63;66.96;102231.63;5063732;27;97284;-81
2023/02/13 04:41:05;;;;;;;15.90;7.50;;;;;;;8.58;67.24;102224.63;5046554;27;96760;-81
2023/02/13 04:43:31;;;;;;;10.70;6.38;;;;;;;8.55;67.14;102226.34;5070969;27;97202;-81
2023/02/13 04:45:56;;;;;;;15.57;6.30;;;;;;;8.61;67.44;102239.47;5053629;27;100825;-81
2023/02/13 04:48:22;;;;;;;10.07;6.47;;;;;;;8.60;67.56;102235.09;5035898;27;101728;-82
2023/02/13 04:50:47;;;;;;;10.55;6.60;;;;;;;8.47;67.26;102202.75;5053675;27;97066;-82
2023/02/13 04:53:13;;;;;;;11.50;6.63;;;;;;;8.61;67.58;102232.50;5039348;27;97936;-82
2023/02/13 04:55:38;;;;;;;9.70;6.32;;;;;;;8.60;67.56;102233.34;5034390;27;101561;-81
2023/02/13 04:58:04;;;;;;;10.82;6.53;;;;;;;8.50;67.88;102222.84;5034450;27;99727;-81
2023/02/13 05:00:29;;;;;;;9.05;6.28;;;;;;;8.56;68.01;102226.34;5038678;27;97186;-81
2023/02/13 05:03:06;;;;;;;11.65;6.75;;;;;;;8.49;68.19;102208.00;5047557;27;96921;-81
2023/02/13 05:05:32;;;;;;;11.57;6.75;;;;;;;8.60;68.26;102229.84;5042728;27;101193;-82
2023/02/13 05:07:58;;;;;;;9.60;6.38;;;;;;;8.50;68.32;102210.63;5073855;27;98295;-81
2023/02/13 05:10:24;;;;;;;12.45;7.38;;;;;;;8.53;68.28;102208.03;5056528;27;96870;-81
2023/02/13 05:12:49;;;;;;;14.88;7.95;;;;;;;8.46;67.82;102187.03;5054089;27;96945;-80
2023/02/13 05:15:15;;;;;;;10.45;7.05;;;;;;;8.57;67.88;102206.28;5035955;27;101553;-83
2023/02/13 05:17:43;;;;;;;12.60;7.78;;;;;;;8.56;68.41;102213.28;5056021;27;99696;-81
2023/02/13 05:20:09;;;;;;;12.40;7.20;;;;;;;8.49;68.26;102203.63;5024290;27;97563;-81
2023/02/13 05:25:19;;;;;;;13.65;7.20;;;;;;;8.55;68.31;102208.91;5046970;27;101286;-82
2023/02/13 05:27:44;;;;;;;11.63;6.70;;;;;;;8.49;68.60;102205.38;5031225;27;101112;-81
2023/02/13 05:30:11;;;;;;;15.25;7.97;;;;;;;8.54;69.03;102220.22;5034776;27;97108;-81
2023/02/13 05:32:37;;;;;;;15.35;8.98;;;;;;;8.58;68.85;102223.72;5056241;27;97427;-82
2023/02/13 05:35:03;;;;;;;15.20;7.85;;;;;;;8.56;68.93;102220.25;5052873;27;101849;-81
2023/02/13 05:37:29;;;;;;;10.82;7.13;;;;;;;8.54;69.02;102219.38;5052422;27;101222;-81
2023/02/13 05:39:54;;;;;;;13.75;7.18;;;;;;;8.56;68.54;102225.50;5039938;27;98025;-81
2023/02/13 05:42:20;;;;;;;10.85;6.90;;;;;;;8.58;68.93;102226.34;5033041;27;97113;-85
2023/02/13 05:44:45;;;;;;;11.93;7.60;;;;;;;8.59;68.91;102223.75;5035377;27;101787;-82
2023/02/13 05:47:11;;;;;;;15.25;7.90;;;;;;;8.56;69.02;102226.34;5046276;27;100323;-82
2023/02/13 05:49:37;;;;;;;9.38;6.80;;;;;;;8.59;69.05;102226.38;5049264;27;97006;-81
2023/02/13 05:52:02;;;;;;;11.25;7.35;;;;;;;8.56;69.03;102220.25;5049851;27;97173;-82
2023/02/13 05:54:28;;;;;;;11.38;7.70;;;;;;;8.57;68.96;102228.09;5033981;27;100751;-82
2023/02/13 05:56:53;;;;;;;11.32;7.18;;;;;;;8.60;69.12;102233.34;5030562;27;100018;-81
2023/02/13 05:59:19;;;;;;;9.25;6.43;;;;;;;8.56;69.29;102230.72;5070391;27;97699;-82
2023/02/13 06:01:44;;;;;;;10.07;7.05;;;;;;;8.52;69.07;102222.00;5044947;27;96828;-82
2023/02/13 06:04:10;;;;;;;12.80;6.97;;;;;;;8.57;69.04;102233.34;5056082;27;97888;-84
2023/02/13 06:06:35;;;;;;;11.75;7.20;;;;;;;8.58;69.43;102229.88;5035492;27;102015;-82
2023/02/13 06:09:01;;;;;;;13.27;6.72;;;;;;;8.28;69.12;102180.81;5046183;27;97139;-82
2023/02/13 06:11:27;;;;;;;14.68;7.47;;;;;;;8.59;69.23;102239.47;5071396;27;97009;-83
2023/02/13 06:13:52;;;;;;;23.25;8.45;;;;;;;8.59;69.07;102236.84;5038956;27;101364;-82
2023/02/13 06:16:18;;;;;;;13.02;7.53;;;;;;;8.61;69.50;102242.09;5052406;27;98478;-82
2023/02/13 06:18:43;;;;;;;11.90;7.18;;;;;;;8.61;69.42;102244.72;5037006;27;97262;-82
2023/02/13 06:21:09;;;;;;;26.60;8.32;;;;;;;8.55;69.64;102235.09;5018824;27;97263;-81
2023/02/13 06:23:34;;;;;;;42.35;11.88;;;;;;;8.55;69.29;102237.72;5054890;27;97439;-81
2023/02/13 06:26:04;;;;;;;9.88;6.70;;;;;;;8.49;69.24;102232.41;5038590;27;101185;-81
2023/02/13 06:28:30;;;;;;;9.27;6.00;;;;;;;8.59;69.41;102246.44;5034418;27;97375;-81
2023/02/13 06:30:56;;;;;;;9.48;6.20;;;;;;;8.57;69.44;102250.78;5062008;27;97191;-83
2023/02/13 06:33:21;;;;;;;10.32;6.93;;;;;;;8.58;69.61;102256.03;5037280;27;101753;-84
2023/02/13 06:35:49;;;;;;;9.82;6.03;;;;;;;8.61;69.04;102263.03;5055505;27;98059;-81
2023/02/13 06:38:17;;;;;;;11.65;7.15;;;;;;;8.58;69.25;102257.75;5072632;27;96777;-81
2023/02/13 06:40:47;;;;;;;11.10;6.80;;;;;;;8.63;69.54;102260.41;5039108;27;97210;-82
2023/02/13 06:43:13;;;;;;;12.55;7.07;;;;;;;8.53;69.79;102247.28;5055902;27;97844;-82
2023/02/13 06:45:39;;;;;;;14.98;8.15;;;;;;;8.63;69.64;102261.28;5035324;27;101250;-81
2023/02/13 06:48:04;;;;;;;12.73;6.95;;;;;;;8.50;69.79;102244.66;5034339;27;96809;-82
2023/02/13 06:50:30;;;;;;;12.93;6.97;;;;;;;8.61;69.32;102265.66;5038034;27;97103;-82
2023/02/13 06:52:56;;;;;;;9.65;6.93;;;;;;;8.62;69.27;102267.41;5038100;27;101132;-82
2023/02/13 06:55:22;;;;;;;14.10;8.00;;;;;;;8.63;69.95;102258.66;5042183;27;101087;-83
2023/02/13 06:57:47;;;;;;;12.55;8.30;;;;;;;8.60;69.25;102256.91;5046898;27;96875;-82
2023/02/13 07:00:14;;;;;;;14.90;8.45;;;;;;;8.56;69.12;102255.16;5035856;27;96867;-82
2023/02/13 07:02:41;;;;;;;16.50;9.02;;;;;;;8.63;69.22;102258.66;5047110;27;101577;-83
2023/02/13 07:05:07;;;;;;;14.98;9.05;;;;;;;8.55;69.71;102247.28;5037773;27;101395;-82
2023/02/13 07:07:34;;;;;;;14.43;9.15;;;;;;;8.59;69.09;102259.53;5051485;27;97715;-80
2023/02/13 07:10:00;;;;;;;14.80;8.13;;;;;;;8.55;69.76;102249.91;5067140;27;97319;-80
2023/02/13 07:12:25;;;;;;;13.93;8.40;;;;;;;8.57;69.59;102256.91;5027821;27;102693;-81
2023/02/13 07:14:51;;;;;;;11.73;8.07;;;;;;;8.60;69.86;102250.81;5067265;27;97109;-82
2023/02/13 07:17:17;;;;;;;10.75;6.82;;;;;;;8.66;69.56;102260.44;5053361;27;96856;-81
2023/02/13 07:19:42;;;;;;;13.55;8.27;;;;;;;8.59;69.33;102246.44;5034323;27;97738;-81
2023/02/13 07:22:08;;;;;;;15.35;8.30;;;;;;;8.62;69.43;102249.06;5033069;27;101656;-81
2023/02/13 07:24:34;;;;;;;11.32;7.65;;;;;;;8.68;69.20;102253.47;5048117;27;101418;-81
2023/02/13 07:27:00;;;;;;;11.95;8.27;;;;;;;8.63;69.65;102242.09;5046804;27;97029;-82
2023/02/13 07:29:26;;;;;;;12.80;8.40;;;;;;;8.63;69.82;102248.19;5054051;27;97455;-85
2023/02/13 07:31:52;;;;;;;23.63;10.15;;;;;;;8.61;69.79;102245.59;5035265;27;101211;-82
2023/02/13 07:34:17;;;;;;;16.00;7.82;;;;;;;8.57;69.61;102240.31;5052470;27;101442;-82
2023/02/13 07:36:43;;;;;;;17.13;9.30;;;;;;;8.65;69.38;102243.84;5034748;27;96836;-82
2023/02/13 07:39:08;;;;;;;15.70;7.97;;;;;;;8.66;69.31;102249.97;5071918;27;96927;-82
2023/02/13 07:41:34;;;;;;;13.63;7.25;;;;;;;8.67;69.65;102247.38;5035530;27;101038;-82
2023/02/13 07:43:59;;;;;;;12.25;6.95;;;;;;;8.66;69.66;102245.59;5052670;27;101417;-83
2023/02/13 07:46:25;;;;;;;12.23;7.88;;;;;;;8.58;69.56;102227.25;5028202;27;96778;-86
2023/02/13 07:48:51;;;;;;;9.05;6.45;;;;;;;8.74;69.42;102238.66;5037141;27;97196;-81
2023/02/13 07:51:17;;;;;;;10.07;6.68;;;;;;;8.76;69.28;102236.91;5050012;27;100562;-83
2023/02/13 07:53:42;;;;;;;9.60;6.90;;;;;;;8.77;69.51;102237.78;5053268;27;101701;-82
2023/02/13 07:56:09;;;;;;;10.07;6.40;;;;;;;8.65;69.67;102220.28;5036286;27;96864;-83
2023/02/13 07:58:35;;;;;;;9.93;6.75;;;;;;;8.80;69.58;102251.75;5032163;27;97427;-82
2023/02/13 08:01:09;;;;;;;16.17;8.07;;;;;;;8.72;69.26;102229.03;5031364;27;101530;-82
2023/02/13 08:03:34;;;;;;;11.43;7.18;;;;;;;8.82;69.67;102247.41;5047854;27;100896;-81
2023/02/13 08:06:00;;;;;;;9.82;7.15;;;;;;;8.83;69.69;102249.16;5038329;27;96789;-82
2023/02/13 08:08:26;;;;;;;11.60;7.18;;;;;;;8.86;69.97;102248.28;5032383;27;97782;-82
2023/02/13 08:13:36;;;;;;;12.00;7.82;;;;;;;8.88;69.90;102245.69;5053137;27;101473;-82
2023/02/13 08:16:02;;;;;;;15.00;8.07;;;;;;;8.87;69.94;102238.69;5064879;27;98114;-83
2023/02/13 08:18:27;;;;;;;17.85;8.57;;;;;;;8.91;69.62;102256.19;5041172;27;96839;-82
2023/02/13 08:20:53;;;;;;;13.73;8.10;;;;;;;8.85;70.08;102251.78;5066256;27;97529;-82
2023/02/13 08:23:18;;;;;;;17.55;9.02;;;;;;;8.91;70.12;102253.56;5069784;27;97936;-82
2023/02/13 08:25:44;;;;;;;15.95;10.20;;;;;;;8.81;69.94;102240.44;5062407;27;96873;-82
2023/02/13 08:28:09;;;;;;;15.20;9.45;;;;;;;8.89;70.26;102250.06;5050524;27;96965;-82
2023/02/13 08:30:35;;;;;;;18.50;10.13;;;;;;;8.92;70.12;102256.16;5034340;27;101836;-80
2023/02/13 08:33:00;;;;;;;14.57;9.48;;;;;;;8.92;70.56;102250.94;5050942;27;101907;-82
2023/02/13 08:35:28;;;;;;;16.48;9.77;;;;;;;8.94;70.62;102250.94;5034891;27;97338;-88
2023/02/13 08:37:54;;;;;;;16.73;10.27;;;;;;;8.94;70.75;102248.34;5066550;27;97833;-82
2023/02/13 08:40:20;;;;;;;16.42;10.30;;;;;;;8.97;70.58;102248.34;5047192;27;97753;-82
2023/02/13 08:42:45;;;;;;;19.33;11.32;;;;;;;8.86;71.01;102232.59;5066515;27;101181;-83
2023/02/13 08:45:11;;;;;;;22.52;13.23;;;;;;;8.80;70.92;102219.47;5055483;27;97434;-83
2023/02/13 08:47:38;;;;;;;25.58;12.95;;;;;;;8.99;70.80;102255.34;5036685;27;96974;-83
2023/02/13 08:50:05;;;;;;;22.75;13.38;;;;;;;8.90;71.33;102238.69;5033653;27;101432;-82
2023/02/13 08:52:30;;;;;;;27.38;14.43;;;;;;;8.94;70.95;102240.47;5036979;27;101322;-82
2023/02/13 08:54:56;;;;;;;27.38;14.60;;;;;;;8.85;71.47;102230.84;5043592;27;96820;-82
2023/02/13 08:57:21;;;;;;;26.33;14.82;;;;;;;9.02;71.17;102255.34;5036104;27;97021;-84
2023/02/13 08:59:47;;;;;;;23.98;13.90;;;;;;;8.90;71.36;102222.97;5067562;27;98749;-81
2023/02/13 09:02:13;;;;;;;27.50;14.93;;;;;;;8.98;71.98;102245.72;5052619;27;97519;-82
2023/02/13 09:04:39;;;;;;;25.55;14.52;;;;;;;8.97;71.73;102248.34;5053214;27;96850;-83
2023/02/13 09:07:04;;;;;;;26.65;14.98;;;;;;;9.04;71.90;102250.97;5049742;27;96948;-83
2023/02/13 09:09:30;;;;;;;21.75;13.63;;;;;;;9.07;71.78;102264.09;5034041;27;101102;-84
2023/02/13 09:11:56;;;;;;;22.50;12.82;;;;;;;9.06;71.95;102264.09;5024400;27;101828;-83
2023/02/13 09:14:25;;;;;;;23.15;12.73;;;;;;;9.03;71.70;102250.97;5035778;27;97553;-84
2023/02/13 09:16:51;;;;;;;22.17;12.80;;;;;;;9.06;71.97;102262.34;5071082;27;97128;-84
2023/02/13 09:19:16;;;;;;;24.25;12.98;;;;;;;9.08;72.08;102262.34;5040217;27;101417;-84
2023/02/13 09:21:42;;;;;;;23.48;12.85;;;;;;;9.06;71.72;102270.19;5050696;27;97500;-84
2023/02/13 09:24:09;;;;;;;22.40;13.07;;;;;;;8.97;72.33;102256.19;5070529;27;97102;-83
2023/02/13 09:26:34;;;;;;;22.33;12.32;;;;;;;8.92;72.37;102256.16;5010220;27;96886;-82
2023/02/13 09:29:00;;;;;;;19.55;10.43;;;;;;;9.04;71.90;102274.53;4999218;27;101799;-84
2023/02/13 09:31:25;;;;;;;11.75;6.97;;;;;;;9.09;71.25;102289.41;5011215;27;101454;-83
2023/02/13 09:33:51;;;;;;;6.80;4.57;;;;;;;9.02;71.19;102278.06;5032238;27;97143;-83
2023/02/13 09:36:19;;;;;;;5.40;3.20;;;;;;;9.03;70.41;102279.78;5012720;27;97453;-84
2023/02/13 09:38:46;;;;;;;3.40;2.38;;;;;;;9.07;69.99;102298.16;5012757;27;101762;-82
2023/02/13 09:41:27;;;;;;;3.55;2.10;;;;;;;9.00;70.07;102287.66;4995592;28;101160;-81
2023/02/13 09:44:01;;;;;;;6.10;2.73;;;;;;;9.09;69.32;102294.66;4999673;27;97268;-80
2023/02/13 09:46:33;;;;;;;5.07;2.10;;;;;;;9.12;69.03;102302.53;4984246;27;96921;-82
2023/02/13 09:49:00;;;;;;;;;;;;;;;9.13;69.70;102312.13;5025113;27;101538;-83
2023/02/13 09:51:26;;;;;;;4.25;2.53;;;;;;;9.15;68.70;102299.91;4990160;27;100428;-84
2023/02/13 09:53:59;;;;;;;3.25;2.35;;;;;;;9.16;68.87;102293.78;5005426;27;97694;-84
2023/02/13 09:57:00;;;;;;;4.70;3.10;;;;;;;9.20;68.92;102304.31;5001610;27;97614;-85
2023/02/13 09:59:49;;;;;;;4.53;2.60;;;;;;;9.24;68.78;102306.06;5023628;27;98028;-84
2023/02/13 10:02:24;;;;;;;3.42;2.15;;;;;;;9.29;68.78;102312.19;4989375;28;101341;-83
2023/02/13 10:05:06;;;;;;;3.47;2.13;;;;;;;9.30;68.32;102310.44;5006981;27;96924;-83
2023/02/13 10:07:38;;;;;;;;;;;;;;;9.31;68.72;102312.22;4994539;27;97299;-84
2023/02/13 10:10:07;;;;;;;;;;;;;;;9.35;68.00;102311.34;4998451;27;99447;-83
2023/02/13 10:12:51;;;;;;;3.70;2.03;;;;;;;9.37;68.08;102304.34;5014726;27;100657;-85
2023/02/13 10:15:39;;;;;;;4.15;2.20;;;;;;;9.38;68.16;102294.75;5026146;27;97533;-82
2023/02/13 10:18:13;;;;;;;4.57;2.50;;;;;;;9.37;67.86;102293.00;5025182;27;97684;-83
2023/02/13 10:20:42;;;;;;;7.05;2.70;;;;;;;9.47;67.53;102311.34;5024177;27;98114;-84
2023/02/13 10:23:35;;;;;;;6.50;3.20;;;;;;;9.59;67.62;102300.00;5011121;27;98359;-82
2023/02/13 10:26:06;;;;;;;6.63;3.30;;;;;;;9.63;67.35;102304.41;5007458;27;96836;-82
2023/02/13 10:28:42;;;;;;;4.05;2.67;;;;;;;9.67;66.85;102300.03;5019208;27;97374;-82
2023/02/13 10:31:17;;;;;;;5.93;3.28;;;;;;;9.63;66.32;102279.91;5012736;27;97490;-82
2023/02/13 10:33:46;;;;;;;6.63;2.95;;;;;;;9.79;65.99;102302.66;5025658;27;97435;-83
2023/02/13 10:36:21;;;;;;;4.25;2.58;;;;;;;9.84;65.45;102298.31;5014856;27;97239;-83
2023/02/13 10:38:53;;;;;;;5.38;2.80;;;;;;;9.89;65.20;102293.94;4994557;27;97429;-81
2023/02/13 10:41:29;;;;;;;7.45;3.42;;;;;;;9.89;64.80;102290.41;5009025;27;101403;-80
2023/02/13 10:44:12;;;;;;;4.50;3.17;;;;;;;9.91;64.67;102297.41;5005586;28;100894;-84
2023/02/13 10:46:55;;;;;;;4.68;2.95;;;;;;;9.94;64.21;102288.66;5011046;27;98015;-84
2023/02/13 10:49:30;;;;;;;7.90;3.15;;;;;;;9.94;64.17;102280.81;5013496;27;96748;-85
2023/02/13 10:52:29;;;;;;;6.80;3.25;;;;;;;9.85;63.82;102265.94;5015947;27;101911;-86
2023/02/13 10:55:32;;;;;;;5.18;2.90;;;;;;;9.94;63.02;102275.56;5012876;28;101185;-85
2023/02/13 10:58:19;;;;;;;4.25;2.65;;;;;;;9.96;63.33;102279.94;4986545;27;97447;-86
2023/02/13 11:01:09;;;;;;;8.80;3.42;;;;;;;9.94;63.60;102271.19;5013887;27;96787;-84
2023/02/13 11:03:34;;;;;;;6.03;3.47;;;;;;;9.92;64.01;102267.69;5011475;27;100350;-83
2023/02/13 11:06:05;;;;;;;9.07;4.50;;;;;;;9.99;63.51;102265.94;4998296;27;101472;-85
2023/02/13 11:08:42;;;;;;;6.43;2.83;;;;;;;10.03;63.70;102262.44;5015404;27;97328;-81
2023/02/13 11:11:37;;;;;;;8.02;3.38;;;;;;;10.03;63.63;102270.28;5016781;27;96900;-82
2023/02/13 11:14:19;;;;;;;7.22;2.92;;;;;;;9.79;63.47;102239.72;4996018;27;101262;-80
2023/02/13 11:17:00;;;;;;;6.00;3.20;;;;;;;9.93;63.63;102268.56;4999514;27;100123;-79
2023/02/13 11:19:34;;;;;;;8.50;3.85;;;;;;;9.90;63.48;102263.31;5005887;27;97283;-81
2023/02/13 11:22:05;;;;;;;4.43;3.13;;;;;;;9.89;62.90;102270.34;5013797;27;97058;-87
2023/02/13 11:24:31;;;;;;;6.63;3.10;;;;;;;9.88;63.01;102258.06;5049517;27;98099;-85
2023/02/13 11:27:07;;;;;;;7.40;3.70;;;;;;;9.84;63.00;102258.09;4998500;27;101376;-86
2023/02/13 11:29:34;;;;;;;7.03;3.53;;;;;;;9.82;63.19;102239.72;4998692;27;96941;-83
2023/02/13 11:32:18;;;;;;;7.93;2.92;;;;;;;9.88;63.21;102252.81;5013807;27;97050;-85
2023/02/13 11:34:44;;;;;;;5.25;3.17;;;;;;;9.78;62.70;102230.09;5042748;27;98316;-85
2023/02/13 11:37:25;;;;;;;5.38;3.25;;;;;;;9.73;62.20;102224.84;5015598;27;97325;-86
2023/02/13 11:39:53;;;;;;;5.15;2.75;;;;;;;9.84;62.31;102237.97;5014112;27;97778;-85
2023/02/13 11:42:21;;;;;;;6.13;3.58;;;;;;;9.80;62.33;102228.34;5015643;27;97420;-85
2023/02/13 11:44:51;;;;;;;7.72;3.55;;;;;;;9.86;62.20;102233.59;5044613;27;97458;-85
2023/02/13 11:47:29;;;;;;;7.53;3.63;;;;;;;9.86;62.34;102246.72;5010863;27;101183;-82
2023/02/13 11:49:55;;;;;;;5.80;2.97;;;;;;;9.84;63.08;102232.72;5032418;27;97128;-82
2023/02/13 11:52:27;;;;;;;7.95;2.97;;;;;;;9.84;62.47;102232.72;4998223;27;98012;-83
2023/02/13 11:55:04;;;;;;;9.70;3.67;;;;;;;9.84;61.98;102239.72;4997643;27;101518;-82
2023/02/13 11:57:34;;;;;;;6.00;3.75;;;;;;;9.59;62.42;102205.63;5014497;27;101249;-83
2023/02/13 12:00:26;;;;;;;6.38;3.35;;;;;;;9.81;62.28;102240.59;4992962;27;97133;-83
2023/02/13 12:02:51;;;;;;;5.25;2.88;;;;;;;9.68;61.25;102241.47;5048616;27;96853;-85
2023/02/13 12:05:23;;;;;;;4.30;2.83;;;;;;;9.72;61.40;102240.59;4997560;27;100274;-89
2023/02/13 12:07:49;;;;;;;4.38;3.30;;;;;;;9.73;61.38;102247.59;4996494;27;101649;-90
2023/02/13 12:10:17;;;;;;;4.93;3.05;;;;;;;9.74;60.73;102251.94;5001192;27;97691;-89
2023/02/13 12:12:57;;;;;;;3.83;2.83;;;;;;;9.73;60.74;102250.22;5015751;27;96919;-90
2023/02/13 12:15:29;;;;;;;4.13;2.95;;;;;;;9.73;60.64;102248.47;5017876;27;98056;-88
2023/02/13 12:18:05;;;;;;;5.03;2.45;;;;;;;9.72;60.38;102244.09;5017643;27;100886;-89
2023/02/13 12:21:00;;;;;;;8.38;6.40;;;;;;;9.73;60.56;102247.59;5017472;27;96990;-91